sensor_id;sensor_type;location;lat;lon;timestamp;temperature;humidity
18703;DHT22;9481;48.796;9.210;2022-11-23T00:00:00;10.70;50.60
18703;DHT22;9481;48.796;9.210;2022-11-23T00:02:26;10.70;50.60
18703;DHT22;9481;48.796;9.210;2022-11-23T00:04:51;10.70;50.60
18703;DHT22;9481;48.796;9.210;2022-11-23T00:07:17;10.70;50.70
18703;DHT22;9481;48.796;9.210;2022-11-23T00:09:43;10.70;50.70
18703;DHT22;9481;48.796;9.210;2022-11-23T00:12:09;10.70;50.70
18703;DHT22;9481;48.796;9.210;2022-11-23T00:14:34;10.60;50.60
18703;DHT22;9481;48.796;9.210;2022-11-23T00:17:00;10.60;50.50
18703;DHT22;9481;48.796;9.210;2022-11-23T00:19:26;10.60;50.60
18703;DHT22;9481;48.796;9.210;2022-11-23T00:21:51;10.60;50.60
18703;DHT22;9481;48.796;9.210;2022-11-23T00:24:17;10.60;50.70
18703;DHT22;9481;48.796;9.210;2022-11-23T00:26:43;10.50;50.60
18703;DHT22;9481;48.796;9.210;2022-11-23T00:29:09;10.50;50.60
18703;DHT22;9481;48.796;9.210;2022-11-23T00:31:34;10.50;50.70
18703;DHT22;9481;48.796;9.210;2022-11-23T00:34:00;10.50;50.70
18703;DHT22;9481;48.796;9.210;2022-11-23T00:36:27;10.50;50.70
18703;DHT22;9481;48.796;9.210;2022-11-23T00:38:53;10.50;50.80
18703;DHT22;9481;48.796;9.210;2022-11-23T00:41:21;10.50;50.80
18703;DHT22;9481;48.796;9.210;2022-11-23T00:43:49;10.40;50.80
18703;DHT22;9481;48.796;9.210;2022-11-23T00:48:50;10.40;50.80
18703;DHT22;9481;48.796;9.210;2022-11-23T00:51:19;10.40;50.80
18703;DHT22;9481;48.796;9.210;2022-11-23T00:53:47;10.40;50.80
18703;DHT22;9481;48.796;9.210;2022-11-23T00:56:14;10.40;50.80
18703;DHT22;9481;48.796;9.210;2022-11-23T00:58:41;10.40;50.80
18703;DHT22;9481;48.796;9.210;2022-11-23T01:01:09;10.40;50.80
18703;DHT22;9481;48.796;9.210;2022-11-23T01:03:39;10.40;50.80
18703;DHT22;9481;48.796;9.210;2022-11-23T01:06:10;10.40;50.70
18703;DHT22;9481;48.796;9.210;2022-11-23T01:08:38;10.40;50.80
18703;DHT22;9481;48.796;9.210;2022-11-23T01:11:07;10.40;50.80
18703;DHT22;9481;48.796;9.210;2022-11-23T01:13:36;10.40;50.90
18703;DHT22;9481;48.796;9.210;2022-11-23T01:16:06;10.40;50.80
18703;DHT22;9481;48.796;9.210;2022-11-23T01:18:34;10.40;50.80
18703;DHT22;9481;48.796;9.210;2022-11-23T01:21:00;10.40;50.90
18703;DHT22;9481;48.796;9.210;2022-11-23T01:23:28;10.40;50.90
18703;DHT22;9481;48.796;9.210;2022-11-23T01:25:55;10.40;50.90
18703;DHT22;9481;48.796;9.210;2022-11-23T01:28:20;10.40;51.00
18703;DHT22;9481;48.796;9.210;2022-11-23T01:30:46;10.40;51.00
18703;DHT22;9481;48.796;9.210;2022-11-23T01:33:12;10.40;51.00
18703;DHT22;9481;48.796;9.210;2022-11-23T01:35:38;10.40;51.10
18703;DHT22;9481;48.796;9.210;2022-11-23T01:38:04;10.40;51.10
18703;DHT22;9481;48.796;9.210;2022-11-23T01:40:30;10.40;51.10
18703;DHT22;9481;48.796;9.210;2022-11-23T01:42:58;10.40;51.10
18703;DHT22;9481;48.796;9.210;2022-11-23T01:48:21;10.50;51.40
18703;DHT22;9481;48.796;9.210;2022-11-23T01:50:51;10.50;51.30
18703;DHT22;9481;48.796;9.210;2022-11-23T01:53:19;10.50;51.20
18703;DHT22;9481;48.796;9.210;2022-11-23T01:55:46;10.50;51.10
18703;DHT22;9481;48.796;9.210;2022-11-23T01:58:16;10.50;51.80
18703;DHT22;9481;48.796;9.210;2022-11-23T02:00:44;10.50;51.20
18703;DHT22;9481;48.796;9.210;2022-11-23T02:03:10;10.50;51.10
18703;DHT22;9481;48.796;9.210;2022-11-23T02:05:42;10.50;51.10
18703;DHT22;9481;48.796;9.210;2022-11-23T02:08:13;10.50;51.10
18703;DHT22;9481;48.796;9.210;2022-11-23T02:10:41;10.50;51.10
18703;DHT22;9481;48.796;9.210;2022-11-23T02:13:10;10.50;51.00
18703;DHT22;9481;48.796;9.210;2022-11-23T02:15:37;10.50;51.10
18703;DHT22;9481;48.796;9.210;2022-11-23T02:18:07;10.50;50.90
18703;DHT22;9481;48.796;9.210;2022-11-23T02:20:38;10.50;50.90
18703;DHT22;9481;48.796;9.210;2022-11-23T02:23:17;10.50;50.90
18703;DHT22;9481;48.796;9.210;2022-11-23T02:26:01;10.40;50.90
18703;DHT22;9481;48.796;9.210;2022-11-23T02:28:41;10.50;51.00
18703;DHT22;9481;48.796;9.210;2022-11-23T02:31:09;10.40;50.90
18703;DHT22;9481;48.796;9.210;2022-11-23T02:33:39;10.40;50.90
18703;DHT22;9481;48.796;9.210;2022-11-23T02:39:14;10.40;51.00
18703;DHT22;9481;48.796;9.210;2022-11-23T02:41:49;10.30;50.90
18703;DHT22;9481;48.796;9.210;2022-11-23T02:47:00;10.30;50.90
18703;DHT22;9481;48.796;9.210;2022-11-23T02:49:26;10.30;50.90
18703;DHT22;9481;48.796;9.210;2022-11-23T02:51:52;10.30;50.80
18703;DHT22;9481;48.796;9.210;2022-11-23T02:54:18;10.30;50.90
18703;DHT22;9481;48.796;9.210;2022-11-23T02:56:44;10.30;50.90
18703;DHT22;9481;48.796;9.210;2022-11-23T02:59:10;10.20;50.80
18703;DHT22;9481;48.796;9.210;2022-11-23T03:01:36;10.20;50.80
18703;DHT22;9481;48.796;9.210;2022-11-23T03:04:01;10.20;50.80
18703;DHT22;9481;48.796;9.210;2022-11-23T03:06:27;10.20;50.80
18703;DHT22;9481;48.796;9.210;2022-11-23T03:08:53;10.20;50.80
18703;DHT22;9481;48.796;9.210;2022-11-23T03:11:18;10.10;50.70
18703;DHT22;9481;48.796;9.210;2022-11-23T03:13:44;10.10;50.70
18703;DHT22;9481;48.796;9.210;2022-11-23T03:16:10;10.10;50.80
18703;DHT22;9481;48.796;9.210;2022-11-23T03:18:35;10.10;50.80
18703;DHT22;9481;48.796;9.210;2022-11-23T03:21:05;10.10;50.80
18703;DHT22;9481;48.796;9.210;2022-11-23T03:23:33;10.00;50.80
18703;DHT22;9481;48.796;9.210;2022-11-23T03:26:00;10.00;50.90
18703;DHT22;9481;48.796;9.210;2022-11-23T03:28:27;10.00;51.00
18703;DHT22;9481;48.796;9.210;2022-11-23T03:30:53;10.00;51.10
18703;DHT22;9481;48.796;9.210;2022-11-23T03:33:19;10.00;51.10
18703;DHT22;9481;48.796;9.210;2022-11-23T03:35:45;10.00;51.20
18703;DHT22;9481;48.796;9.210;2022-11-23T03:38:11;10.00;51.20
18703;DHT22;9481;48.796;9.210;2022-11-23T03:40:37;10.00;51.20
18703;DHT22;9481;48.796;9.210;2022-11-23T03:43:04;10.10;51.20
18703;DHT22;9481;48.796;9.210;2022-11-23T03:45:30;10.10;51.20
18703;DHT22;9481;48.796;9.210;2022-11-23T03:47:55;10.00;51.10
18703;DHT22;9481;48.796;9.210;2022-11-23T03:50:21;10.10;51.20
18703;DHT22;9481;48.796;9.210;2022-11-23T03:52:50;10.10;51.20
18703;DHT22;9481;48.796;9.210;2022-11-23T03:55:16;10.10;51.30
18703;DHT22;9481;48.796;9.210;2022-11-23T03:57:42;10.00;51.10
18703;DHT22;9481;48.796;9.210;2022-11-23T04:00:08;10.00;51.10
18703;DHT22;9481;48.796;9.210;2022-11-23T04:02:34;10.10;51.20
18703;DHT22;9481;48.796;9.210;2022-11-23T04:05:00;10.00;51.10
18703;DHT22;9481;48.796;9.210;2022-11-23T04:07:26;10.00;51.20
18703;DHT22;9481;48.796;9.210;2022-11-23T04:09:52;10.00;51.30
18703;DHT22;9481;48.796;9.210;2022-11-23T04:12:18;10.00;51.30
18703;DHT22;9481;48.796;9.210;2022-11-23T04:14:43;10.00;51.30
18703;DHT22;9481;48.796;9.210;2022-11-23T04:17:09;10.00;51.40
18703;DHT22;9481;48.796;9.210;2022-11-23T04:19:35;10.00;51.20
18703;DHT22;9481;48.796;9.210;2022-11-23T04:22:00;10.00;51.20
18703;DHT22;9481;48.796;9.210;2022-11-23T04:24:26;10.10;51.30
18703;DHT22;9481;48.796;9.210;2022-11-23T04:26:52;10.00;51.20
18703;DHT22;9481;48.796;9.210;2022-11-23T04:29:17;10.00;51.20
18703;DHT22;9481;48.796;9.210;2022-11-23T04:31:43;10.00;51.20
18703;DHT22;9481;48.796;9.210;2022-11-23T04:34:09;10.00;51.20
18703;DHT22;9481;48.796;9.210;2022-11-23T04:36:35;10.00;51.30
18703;DHT22;9481;48.796;9.210;2022-11-23T04:39:01;10.00;51.20
18703;DHT22;9481;48.796;9.210;2022-11-23T04:41:28;10.00;51.20
18703;DHT22;9481;48.796;9.210;2022-11-23T04:43:54;10.00;51.20
18703;DHT22;9481;48.796;9.210;2022-11-23T04:46:20;10.00;51.30
18703;DHT22;9481;48.796;9.210;2022-11-23T04:48:46;10.00;51.20
18703;DHT22;9481;48.796;9.210;2022-11-23T04:51:12;10.00;51.30
18703;DHT22;9481;48.796;9.210;2022-11-23T04:53:38;10.00;51.20
18703;DHT22;9481;48.796;9.210;2022-11-23T04:56:04;10.00;51.30
18703;DHT22;9481;48.796;9.210;2022-11-23T04:58:31;10.00;51.20
18703;DHT22;9481;48.796;9.210;2022-11-23T05:00:58;10.10;51.30
18703;DHT22;9481;48.796;9.210;2022-11-23T05:03:24;10.00;51.30
18703;DHT22;9481;48.796;9.210;2022-11-23T05:05:49;10.00;51.30
18703;DHT22;9481;48.796;9.210;2022-11-23T05:08:15;10.10;51.30
18703;DHT22;9481;48.796;9.210;2022-11-23T05:10:41;10.00;51.20
18703;DHT22;9481;48.796;9.210;2022-11-23T05:13:08;10.10;51.30
18703;DHT22;9481;48.796;9.210;2022-11-23T05:15:33;10.10;51.20
18703;DHT22;9481;48.796;9.210;2022-11-23T05:18:04;10.00;51.20
18703;DHT22;9481;48.796;9.210;2022-11-23T05:20:31;10.00;51.20
18703;DHT22;9481;48.796;9.210;2022-11-23T05:22:58;10.10;51.30
18703;DHT22;9481;48.796;9.210;2022-11-23T05:25:24;10.10;51.20
18703;DHT22;9481;48.796;9.210;2022-11-23T05:27:50;10.00;51.20
18703;DHT22;9481;48.796;9.210;2022-11-23T05:30:17;10.00;51.20
18703;DHT22;9481;48.796;9.210;2022-11-23T05:32:43;10.00;51.20
18703;DHT22;9481;48.796;9.210;2022-11-23T05:35:09;10.00;51.10
18703;DHT22;9481;48.796;9.210;2022-11-23T05:37:37;10.00;51.20
18703;DHT22;9481;48.796;9.210;2022-11-23T05:40:04;10.00;51.20
18703;DHT22;9481;48.796;9.210;2022-11-23T05:42:30;10.00;51.20
18703;DHT22;9481;48.796;9.210;2022-11-23T05:44:56;10.00;51.20
18703;DHT22;9481;48.796;9.210;2022-11-23T05:47:22;10.00;51.20
18703;DHT22;9481;48.796;9.210;2022-11-23T05:49:48;10.00;51.20
18703;DHT22;9481;48.796;9.210;2022-11-23T05:52:15;10.00;51.30
18703;DHT22;9481;48.796;9.210;2022-11-23T05:54:42;10.10;51.40
18703;DHT22;9481;48.796;9.210;2022-11-23T05:57:08;10.10;51.40
18703;DHT22;9481;48.796;9.210;2022-11-23T05:59:34;10.10;51.40
18703;DHT22;9481;48.796;9.210;2022-11-23T06:02:00;10.10;51.40
18703;DHT22;9481;48.796;9.210;2022-11-23T06:04:25;10.10;51.40
18703;DHT22;9481;48.796;9.210;2022-11-23T06:06:51;10.10;51.40
18703;DHT22;9481;48.796;9.210;2022-11-23T06:09:19;10.10;51.40
18703;DHT22;9481;48.796;9.210;2022-11-23T06:11:45;10.10;51.40
18703;DHT22;9481;48.796;9.210;2022-11-23T06:14:12;10.10;51.30
18703;DHT22;9481;48.796;9.210;2022-11-23T06:16:38;10.10;51.30
18703;DHT22;9481;48.796;9.210;2022-11-23T06:19:04;10.10;51.40
18703;DHT22;9481;48.796;9.210;2022-11-23T06:21:30;10.10;51.40
18703;DHT22;9481;48.796;9.210;2022-11-23T06:23:56;10.10;51.40
18703;DHT22;9481;48.796;9.210;2022-11-23T06:26:22;10.10;51.40
18703;DHT22;9481;48.796;9.210;2022-11-23T06:28:47;10.10;51.30
18703;DHT22;9481;48.796;9.210;2022-11-23T06:31:13;10.20;51.40
18703;DHT22;9481;48.796;9.210;2022-11-23T06:33:39;10.20;52.10
18703;DHT22;9481;48.796;9.210;2022-11-23T06:36:05;10.20;51.40
18703;DHT22;9481;48.796;9.210;2022-11-23T06:38:31;10.20;51.40
18703;DHT22;9481;48.796;9.210;2022-11-23T06:40:58;10.20;51.40
18703;DHT22;9481;48.796;9.210;2022-11-23T06:43:25;10.20;51.40
18703;DHT22;9481;48.796;9.210;2022-11-23T06:45:52;10.20;51.30
18703;DHT22;9481;48.796;9.210;2022-11-23T06:48:18;10.20;51.30
18703;DHT22;9481;48.796;9.210;2022-11-23T06:50:44;10.20;51.30
18703;DHT22;9481;48.796;9.210;2022-11-23T06:53:09;10.20;51.30
18703;DHT22;9481;48.796;9.210;2022-11-23T06:55:38;10.20;51.30
18703;DHT22;9481;48.796;9.210;2022-11-23T06:58:04;10.20;51.30
18703;DHT22;9481;48.796;9.210;2022-11-23T07:00:31;10.20;51.30
18703;DHT22;9481;48.796;9.210;2022-11-23T07:02:57;10.20;51.30
18703;DHT22;9481;48.796;9.210;2022-11-23T07:05:25;10.20;51.20
18703;DHT22;9481;48.796;9.210;2022-11-23T07:07:51;10.20;51.20
18703;DHT22;9481;48.796;9.210;2022-11-23T07:10:18;10.20;51.20
18703;DHT22;9481;48.796;9.210;2022-11-23T07:12:44;10.20;51.10
18703;DHT22;9481;48.796;9.210;2022-11-23T07:15:11;10.20;51.10
18703;DHT22;9481;48.796;9.210;2022-11-23T07:17:39;10.20;51.10
18703;DHT22;9481;48.796;9.210;2022-11-23T07:20:07;10.10;51.00
18703;DHT22;9481;48.796;9.210;2022-11-23T07:22:34;10.20;51.10
18703;DHT22;9481;48.796;9.210;2022-11-23T07:25:00;10.10;51.10
18703;DHT22;9481;48.796;9.210;2022-11-23T07:27:25;10.10;51.10
18703;DHT22;9481;48.796;9.210;2022-11-23T07:29:51;10.10;51.20
18703;DHT22;9481;48.796;9.210;2022-11-23T07:32:17;10.20;51.20
18703;DHT22;9481;48.796;9.210;2022-11-23T07:34:42;10.20;51.20
18703;DHT22;9481;48.796;9.210;2022-11-23T07:37:08;10.20;51.20
18703;DHT22;9481;48.796;9.210;2022-11-23T07:39:34;10.20;51.20
18703;DHT22;9481;48.796;9.210;2022-11-23T07:41:59;10.20;51.20
18703;DHT22;9481;48.796;9.210;2022-11-23T07:44:25;10.20;51.10
18703;DHT22;9481;48.796;9.210;2022-11-23T07:46:52;10.20;51.10
18703;DHT22;9481;48.796;9.210;2022-11-23T07:49:18;10.10;51.00
18703;DHT22;9481;48.796;9.210;2022-11-23T07:51:44;10.10;51.00
18703;DHT22;9481;48.796;9.210;2022-11-23T07:54:09;10.10;51.30
18703;DHT22;9481;48.796;9.210;2022-11-23T07:56:35;10.10;51.00
18703;DHT22;9481;48.796;9.210;2022-11-23T07:59:01;10.10;51.10
18703;DHT22;9481;48.796;9.210;2022-11-23T08:01:26;10.10;51.10
18703;DHT22;9481;48.796;9.210;2022-11-23T08:03:52;10.20;51.20
18703;DHT22;9481;48.796;9.210;2022-11-23T08:06:18;10.20;51.30
18703;DHT22;9481;48.796;9.210;2022-11-23T08:08:43;10.20;51.20
18703;DHT22;9481;48.796;9.210;2022-11-23T08:11:10;10.20;51.30
18703;DHT22;9481;48.796;9.210;2022-11-23T08:13:39;10.20;51.20
18703;DHT22;9481;48.796;9.210;2022-11-23T08:16:05;10.20;51.30
18703;DHT22;9481;48.796;9.210;2022-11-23T08:18:31;10.20;52.00
18703;DHT22;9481;48.796;9.210;2022-11-23T08:21:00;10.30;51.30
18703;DHT22;9481;48.796;9.210;2022-11-23T08:23:26;10.30;51.30
18703;DHT22;9481;48.796;9.210;2022-11-23T08:25:52;10.30;51.20
18703;DHT22;9481;48.796;9.210;2022-11-23T08:28:18;10.30;51.10
18703;DHT22;9481;48.796;9.210;2022-11-23T08:30:44;10.40;51.10
18703;DHT22;9481;48.796;9.210;2022-11-23T08:33:11;10.40;51.00
18703;DHT22;9481;48.796;9.210;2022-11-23T08:35:39;10.40;51.00
18703;DHT22;9481;48.796;9.210;2022-11-23T08:38:08;10.50;51.30
18703;DHT22;9481;48.796;9.210;2022-11-23T08:40:35;10.60;51.80
18703;DHT22;9481;48.796;9.210;2022-11-23T08:43:01;10.70;51.90
18703;DHT22;9481;48.796;9.210;2022-11-23T08:45:28;10.90;51.80
18703;DHT22;9481;48.796;9.210;2022-11-23T08:47:57;11.00;51.50
18703;DHT22;9481;48.796;9.210;2022-11-23T08:50:25;11.10;51.30
18703;DHT22;9481;48.796;9.210;2022-11-23T08:52:55;11.20;51.30
18703;DHT22;9481;48.796;9.210;2022-11-23T08:55:22;11.30;50.90
18703;DHT22;9481;48.796;9.210;2022-11-23T08:57:49;11.30;50.80
18703;DHT22;9481;48.796;9.210;2022-11-23T09:00:15;11.30;50.70
18703;DHT22;9481;48.796;9.210;2022-11-23T09:02:41;11.30;50.50
18703;DHT22;9481;48.796;9.210;2022-11-23T09:05:07;11.30;50.50
18703;DHT22;9481;48.796;9.210;2022-11-23T09:07:33;11.30;50.40
18703;DHT22;9481;48.796;9.210;2022-11-23T09:09:59;11.30;50.40
18703;DHT22;9481;48.796;9.210;2022-11-23T09:12:24;11.30;50.30
18703;DHT22;9481;48.796;9.210;2022-11-23T09:14:51;11.30;50.40
18703;DHT22;9481;48.796;9.210;2022-11-23T09:17:17;11.30;50.40
18703;DHT22;9481;48.796;9.210;2022-11-23T09:19:43;11.30;50.50
18703;DHT22;9481;48.796;9.210;2022-11-23T09:22:08;11.30;50.50
18703;DHT22;9481;48.796;9.210;2022-11-23T09:24:34;11.40;50.60
18703;DHT22;9481;48.796;9.210;2022-11-23T09:27:00;11.40;50.60
18703;DHT22;9481;48.796;9.210;2022-11-23T09:29:25;11.40;50.60
18703;DHT22;9481;48.796;9.210;2022-11-23T09:31:51;11.40;50.60
18703;DHT22;9481;48.796;9.210;2022-11-23T09:34:17;11.40;50.60
18703;DHT22;9481;48.796;9.210;2022-11-23T09:36:43;11.50;50.70
18703;DHT22;9481;48.796;9.210;2022-11-23T09:39:10;11.50;50.60
18703;DHT22;9481;48.796;9.210;2022-11-23T09:44:40;11.60;50.40
18703;DHT22;9481;48.796;9.210;2022-11-23T09:50:48;11.70;50.50
18703;DHT22;9481;48.796;9.210;2022-11-23T09:53:23;11.80;50.20
18703;DHT22;9481;48.796;9.210;2022-11-23T09:55:56;11.90;50.20
18703;DHT22;9481;48.796;9.210;2022-11-23T09:58:26;12.00;50.50
18703;DHT22;9481;48.796;9.210;2022-11-23T10:01:11;12.00;50.30
18703;DHT22;9481;48.796;9.210;2022-11-23T10:03:42;12.10;50.20
18703;DHT22;9481;48.796;9.210;2022-11-23T10:06:19;12.20;50.40
18703;DHT22;9481;48.796;9.210;2022-11-23T10:20:20;12.80;49.60
18703;DHT22;9481;48.796;9.210;2022-11-23T10:22:57;13.00;49.30
18703;DHT22;9481;48.796;9.210;2022-11-23T10:25:41;13.10;49.00
18703;DHT22;9481;48.796;9.210;2022-11-23T10:28:14;13.20;48.80
18703;DHT22;9481;48.796;9.210;2022-11-23T10:30:51;13.40;50.00
18703;DHT22;9481;48.796;9.210;2022-11-23T10:33:29;13.50;49.00
18703;DHT22;9481;48.796;9.210;2022-11-23T10:35:58;13.70;48.60
18703;DHT22;9481;48.796;9.210;2022-11-23T10:38:26;13.90;48.80
18703;DHT22;9481;48.796;9.210;2022-11-23T10:41:00;14.10;48.40
18703;DHT22;9481;48.796;9.210;2022-11-23T10:48:52;14.60;46.80
18703;DHT22;9481;48.796;9.210;2022-11-23T10:51:33;14.80;47.90
18703;DHT22;9481;48.796;9.210;2022-11-23T10:54:02;15.00;47.00
18703;DHT22;9481;48.796;9.210;2022-11-23T10:56:29;15.20;47.60
18703;DHT22;9481;48.796;9.210;2022-11-23T10:58:56;15.40;47.60
18703;DHT22;9481;48.796;9.210;2022-11-23T11:01:24;15.60;47.60
18703;DHT22;9481;48.796;9.210;2022-11-23T11:03:53;15.90;47.30
18703;DHT22;9481;48.796;9.210;2022-11-23T11:06:25;16.10;47.30
18703;DHT22;9481;48.796;9.210;2022-11-23T11:09:17;16.40;47.20
18703;DHT22;9481;48.796;9.210;2022-11-23T11:11:46;16.80;45.10
18703;DHT22;9481;48.796;9.210;2022-11-23T11:14:22;17.20;47.30
18703;DHT22;9481;48.796;9.210;2022-11-23T11:19:35;18.00;46.50
18703;DHT22;9481;48.796;9.210;2022-11-23T11:22:23;18.60;42.90
18703;DHT22;9481;48.796;9.210;2022-11-23T11:25:02;19.20;45.00
18703;DHT22;9481;48.796;9.210;2022-11-23T11:27:30;19.80;44.60
18703;DHT22;9481;48.796;9.210;2022-11-23T11:30:03;20.30;44.00
18703;DHT22;9481;48.796;9.210;2022-11-23T11:33:26;20.90;40.90
18703;DHT22;9481;48.796;9.210;2022-11-23T11:36:07;21.50;39.40
18703;DHT22;9481;48.796;9.210;2022-11-23T11:38:37;22.00;40.80
18703;DHT22;9481;48.796;9.210;2022-11-23T11:41:10;22.40;40.00
18703;DHT22;9481;48.796;9.210;2022-11-23T11:43:56;22.80;38.50
18703;DHT22;9481;48.796;9.210;2022-11-23T11:46:34;23.20;37.20
18703;DHT22;9481;48.796;9.210;2022-11-23T11:49:08;23.60;35.40
18703;DHT22;9481;48.796;9.210;2022-11-23T11:51:43;24.00;36.30
18703;DHT22;9481;48.796;9.210;2022-11-23T11:54:28;24.30;35.20
18703;DHT22;9481;48.796;9.210;2022-11-23T11:57:04;24.70;33.50
18703;DHT22;9481;48.796;9.210;2022-11-23T11:59:44;25.00;34.50
18703;DHT22;9481;48.796;9.210;2022-11-23T12:02:37;25.40;33.20
18703;DHT22;9481;48.796;9.210;2022-11-23T12:05:24;25.70;31.20
18703;DHT22;9481;48.796;9.210;2022-11-23T12:11:10;26.40;29.60
18703;DHT22;9481;48.796;9.210;2022-11-23T12:13:40;26.70;31.30
18703;DHT22;9481;48.796;9.210;2022-11-23T12:19:29;27.20;28.40
18703;DHT22;9481;48.796;9.210;2022-11-23T12:25:36;27.70;27.60
18703;DHT22;9481;48.796;9.210;2022-11-23T12:43:12;29.00;26.30
18703;DHT22;9481;48.796;9.210;2022-11-23T12:46:19;29.20;25.80
18703;DHT22;9481;48.796;9.210;2022-11-23T12:57:33;29.90;25.00
18703;DHT22;9481;48.796;9.210;2022-11-23T13:00:14;30.10;25.10
18703;DHT22;9481;48.796;9.210;2022-11-23T13:05:46;30.50;25.20
18703;DHT22;9481;48.796;9.210;2022-11-23T13:08:49;30.60;24.00
18703;DHT22;9481;48.796;9.210;2022-11-23T13:11:48;30.80;23.70
18703;DHT22;9481;48.796;9.210;2022-11-23T13:20:28;31.10;24.10
18703;DHT22;9481;48.796;9.210;2022-11-23T13:23:13;31.20;22.70
18703;DHT22;9481;48.796;9.210;2022-11-23T13:25:39;31.10;23.60
18703;DHT22;9481;48.796;9.210;2022-11-23T13:28:28;31.00;23.40
18703;DHT22;9481;48.796;9.210;2022-11-23T13:31:21;30.90;22.20
18703;DHT22;9481;48.796;9.210;2022-11-23T13:33:54;30.60;22.10
18703;DHT22;9481;48.796;9.210;2022-11-23T13:38:57;29.40;22.30
18703;DHT22;9481;48.796;9.210;2022-11-23T13:46:44;26.50;23.30
18703;DHT22;9481;48.796;9.210;2022-11-23T13:49:45;25.40;23.70
18703;DHT22;9481;48.796;9.210;2022-11-23T13:57:31;22.60;25.50
18703;DHT22;9481;48.796;9.210;2022-11-23T14:09:11;19.90;27.50
18703;DHT22;9481;48.796;9.210;2022-11-23T14:29:14;17.60;31.10
18703;DHT22;9481;48.796;9.210;2022-11-23T14:35:19;17.10;32.00
18703;DHT22;9481;48.796;9.210;2022-11-23T14:41:21;16.70;32.80
18703;DHT22;9481;48.796;9.210;2022-11-23T14:43:49;16.60;32.80
18703;DHT22;9481;48.796;9.210;2022-11-23T14:46:22;16.40;32.80
18703;DHT22;9481;48.796;9.210;2022-11-23T14:48:50;16.30;33.30
18703;DHT22;9481;48.796;9.210;2022-11-23T14:51:23;16.10;33.10
18703;DHT22;9481;48.796;9.210;2022-11-23T14:53:55;16.00;33.80
18703;DHT22;9481;48.796;9.210;2022-11-23T14:56:35;16.00;33.70
18703;DHT22;9481;48.796;9.210;2022-11-23T14:59:26;15.90;34.40
18703;DHT22;9481;48.796;9.210;2022-11-23T15:02:04;15.90;34.70
18703;DHT22;9481;48.796;9.210;2022-11-23T15:04:33;15.80;34.30
18703;DHT22;9481;48.796;9.210;2022-11-23T15:07:07;15.70;34.40
18703;DHT22;9481;48.796;9.210;2022-11-23T15:10:01;15.70;34.70
18703;DHT22;9481;48.796;9.210;2022-11-23T15:12:44;15.60;35.20
18703;DHT22;9481;48.796;9.210;2022-11-23T15:15:24;15.60;35.20
18703;DHT22;9481;48.796;9.210;2022-11-23T15:17:59;15.50;35.30
18703;DHT22;9481;48.796;9.210;2022-11-23T15:20:32;15.40;35.10
18703;DHT22;9481;48.796;9.210;2022-11-23T15:23:01;15.40;35.60
18703;DHT22;9481;48.796;9.210;2022-11-23T15:25:28;15.30;35.40
18703;DHT22;9481;48.796;9.210;2022-11-23T15:27:54;15.30;35.50
18703;DHT22;9481;48.796;9.210;2022-11-23T15:30:26;15.20;35.70
18703;DHT22;9481;48.796;9.210;2022-11-23T15:33:09;15.10;35.90
18703;DHT22;9481;48.796;9.210;2022-11-23T15:35:37;15.10;36.40
18703;DHT22;9481;48.796;9.210;2022-11-23T15:38:11;15.00;35.90
18703;DHT22;9481;48.796;9.210;2022-11-23T15:40:43;14.90;36.30
18703;DHT22;9481;48.796;9.210;2022-11-23T15:43:16;14.90;36.30
18703;DHT22;9481;48.796;9.210;2022-11-23T15:48:13;14.80;36.30
18703;DHT22;9481;48.796;9.210;2022-11-23T15:53:16;14.80;36.70
18703;DHT22;9481;48.796;9.210;2022-11-23T15:55:43;14.70;36.60
18703;DHT22;9481;48.796;9.210;2022-11-23T15:58:14;14.70;36.90
18703;DHT22;9481;48.796;9.210;2022-11-23T16:00:48;14.70;37.70
18703;DHT22;9481;48.796;9.210;2022-11-23T16:08:38;14.60;37.40
18703;DHT22;9481;48.796;9.210;2022-11-23T16:13:43;14.50;37.30
18703;DHT22;9481;48.796;9.210;2022-11-23T16:16:17;14.40;36.90
18703;DHT22;9481;48.796;9.210;2022-11-23T16:18:48;14.40;37.30
18703;DHT22;9481;48.796;9.210;2022-11-23T16:21:21;14.30;37.20
18703;DHT22;9481;48.796;9.210;2022-11-23T16:23:49;14.30;37.30
18703;DHT22;9481;48.796;9.210;2022-11-23T16:26:19;14.20;37.50
18703;DHT22;9481;48.796;9.210;2022-11-23T16:28:55;14.20;37.60
18703;DHT22;9481;48.796;9.210;2022-11-23T16:31:36;14.20;37.80
18703;DHT22;9481;48.796;9.210;2022-11-23T16:34:16;14.20;38.00
18703;DHT22;9481;48.796;9.210;2022-11-23T16:36:42;14.20;38.20
18703;DHT22;9481;48.796;9.210;2022-11-23T16:39:08;14.10;37.90
18703;DHT22;9481;48.796;9.210;2022-11-23T16:41:34;14.10;37.90
18703;DHT22;9481;48.796;9.210;2022-11-23T16:43:59;14.10;38.00
18703;DHT22;9481;48.796;9.210;2022-11-23T16:46:25;14.10;38.20
18703;DHT22;9481;48.796;9.210;2022-11-23T16:48:51;14.00;38.00
18703;DHT22;9481;48.796;9.210;2022-11-23T16:51:18;14.00;38.10
18703;DHT22;9481;48.796;9.210;2022-11-23T16:53:45;14.00;38.10
18703;DHT22;9481;48.796;9.210;2022-11-23T16:56:24;14.00;38.20
18703;DHT22;9481;48.796;9.210;2022-11-23T16:58:51;14.00;38.50
18703;DHT22;9481;48.796;9.210;2022-11-23T17:01:26;14.00;38.60
18703;DHT22;9481;48.796;9.210;2022-11-23T17:03:54;13.90;39.00
18703;DHT22;9481;48.796;9.210;2022-11-23T17:06:20;13.90;38.80
18703;DHT22;9481;48.796;9.210;2022-11-23T17:08:50;13.90;39.10
18703;DHT22;9481;48.796;9.210;2022-11-23T17:11:24;13.80;39.30
18703;DHT22;9481;48.796;9.210;2022-11-23T17:13:53;13.80;40.10
18703;DHT22;9481;48.796;9.210;2022-11-23T17:16:21;13.80;40.00
18703;DHT22;9481;48.796;9.210;2022-11-23T17:18:50;13.80;40.20
18703;DHT22;9481;48.796;9.210;2022-11-23T17:21:16;13.80;40.40
18703;DHT22;9481;48.796;9.210;2022-11-23T17:23:42;13.70;40.50
18703;DHT22;9481;48.796;9.210;2022-11-23T17:26:27;13.70;40.80
18703;DHT22;9481;48.796;9.210;2022-11-23T17:28:56;13.60;41.50
18703;DHT22;9481;48.796;9.210;2022-11-23T17:31:23;13.60;40.90
18703;DHT22;9481;48.796;9.210;2022-11-23T17:33:49;13.50;41.10
18703;DHT22;9481;48.796;9.210;2022-11-23T17:36:15;13.50;42.00
18703;DHT22;9481;48.796;9.210;2022-11-23T17:38:41;13.40;41.40
18703;DHT22;9481;48.796;9.210;2022-11-23T17:41:11;13.40;41.70
18703;DHT22;9481;48.796;9.210;2022-11-23T17:43:38;13.30;41.70
18703;DHT22;9481;48.796;9.210;2022-11-23T17:46:04;13.30;42.00
18703;DHT22;9481;48.796;9.210;2022-11-23T17:48:30;13.20;42.20
18703;DHT22;9481;48.796;9.210;2022-11-23T17:50:58;13.20;42.60
18703;DHT22;9481;48.796;9.210;2022-11-23T17:53:24;13.10;42.80
18703;DHT22;9481;48.796;9.210;2022-11-23T17:55:49;13.10;43.40
18703;DHT22;9481;48.796;9.210;2022-11-23T17:58:15;13.00;43.50
18703;DHT22;9481;48.796;9.210;2022-11-23T18:00:41;13.00;43.90
18703;DHT22;9481;48.796;9.210;2022-11-23T18:03:06;12.90;44.00
18703;DHT22;9481;48.796;9.210;2022-11-23T18:05:32;12.90;44.50
18703;DHT22;9481;48.796;9.210;2022-11-23T18:07:58;12.90;45.10
18703;DHT22;9481;48.796;9.210;2022-11-23T18:10:24;12.80;44.90
18703;DHT22;9481;48.796;9.210;2022-11-23T18:12:50;12.80;45.30
18703;DHT22;9481;48.796;9.210;2022-11-23T18:15:15;12.80;45.60
18703;DHT22;9481;48.796;9.210;2022-11-23T18:17:41;12.80;46.00